sensor_id;sensor_type;location;lat;lon;timestamp;pressure;altitude;pressure_sealevel;temperature;humidity
30516;BME280;17297;54.022;10.760;2023-08-30T00:02:14;100755.34;;;18.30;65.02
30516;BME280;17297;54.022;10.760;2023-08-30T00:04:41;100751.00;;;18.29;64.96
30516;BME280;17297;54.022;10.760;2023-08-30T00:07:07;100743.03;;;18.28;64.97
30516;BME280;17297;54.022;10.760;2023-08-30T00:09:32;100741.41;;;18.27;65.11
30516;BME280;17297;54.022;10.760;2023-08-30T00:11:57;100747.66;;;18.27;65.29
30516;BME280;17297;54.022;10.760;2023-08-30T00:14:23;100747.06;;;18.25;65.10
30516;BME280;17297;54.022;10.760;2023-08-30T00:16:48;100745.22;;;18.26;65.04
30516;BME280;17297;54.022;10.760;2023-08-30T00:19:13;100751.69;;;18.24;65.14
30516;BME280;17297;54.022;10.760;2023-08-30T00:21:39;100752.78;;;18.23;65.00
30516;BME280;17297;54.022;10.760;2023-08-30T00:24:04;100750.28;;;18.22;65.18
30516;BME280;17297;54.022;10.760;2023-08-30T00:26:30;100755.72;;;18.22;65.34
30516;BME280;17297;54.022;10.760;2023-08-30T00:28:57;100746.19;;;18.19;65.40
30516;BME280;17297;54.022;10.760;2023-08-30T00:31:23;100748.03;;;18.19;65.37
30516;BME280;17297;54.022;10.760;2023-08-30T00:33:48;100752.66;;;18.18;65.38
30516;BME280;17297;54.022;10.760;2023-08-30T00:36:14;100755.66;;;18.17;65.11
30516;BME280;17297;54.022;10.760;2023-08-30T00:38:39;100755.66;;;18.17;65.39
30516;BME280;17297;54.022;10.760;2023-08-30T00:41:05;100752.94;;;18.17;65.22
30516;BME280;17297;54.022;10.760;2023-08-30T00:43:30;100751.25;;;18.16;65.58
30516;BME280;17297;54.022;10.760;2023-08-30T00:45:56;100750.44;;;18.15;65.24
30516;BME280;17297;54.022;10.760;2023-08-30T00:48:22;100749.63;;;18.15;65.41
30516;BME280;17297;54.022;10.760;2023-08-30T00:50:47;100745.00;;;18.15;65.37
30516;BME280;17297;54.022;10.760;2023-08-30T00:53:14;100738.97;;;18.13;65.40
30516;BME280;17297;54.022;10.760;2023-08-30T00:55:41;100743.56;;;18.13;65.23
30516;BME280;17297;54.022;10.760;2023-08-30T00:58:07;100746.28;;;18.13;65.46
30516;BME280;17297;54.022;10.760;2023-08-30T01:00:33;100743.84;;;18.11;65.38
30516;BME280;17297;54.022;10.760;2023-08-30T01:02:59;100742.19;;;18.10;65.37
30516;BME280;17297;54.022;10.760;2023-08-30T01:05:26;100744.91;;;18.10;65.38
30516;BME280;17297;54.022;10.760;2023-08-30T01:07:51;100741.34;;;18.10;65.49
30516;BME280;17297;54.022;10.760;2023-08-30T01:10:18;100731.53;;;18.09;65.52
30516;BME280;17297;54.022;10.760;2023-08-30T01:12:49;100721.72;;;18.08;65.48
30516;BME280;17297;54.022;10.760;2023-08-30T01:15:19;100720.91;;;18.07;65.68
30516;BME280;17297;54.022;10.760;2023-08-30T01:17:47;100720.31;;;18.05;65.53
30516;BME280;17297;54.022;10.760;2023-08-30T01:20:14;100724.94;;;18.05;65.32
30516;BME280;17297;54.022;10.760;2023-08-30T01:23:01;100711.81;;;18.02;65.68
30516;BME280;17297;54.022;10.760;2023-08-30T01:28:30;100712.28;;;17.98;65.42
30516;BME280;17297;54.022;10.760;2023-08-30T01:30:57;100700.81;;;17.96;65.72
30516;BME280;17297;54.022;10.760;2023-08-30T01:33:26;100708.97;;;17.96;65.62
30516;BME280;17297;54.022;10.760;2023-08-30T01:35:55;100706.50;;;17.95;65.62
30516;BME280;17297;54.022;10.760;2023-08-30T01:38:21;100707.56;;;17.94;65.66
30516;BME280;17297;54.022;10.760;2023-08-30T01:40:48;100705.09;;;17.92;65.68
30516;BME280;17297;54.022;10.760;2023-08-30T01:43:14;100700.97;;;17.90;65.68
30516;BME280;17297;54.022;10.760;2023-08-30T01:45:42;100695.78;;;17.88;65.54
30516;BME280;17297;54.022;10.760;2023-08-30T01:48:10;100690.81;;;17.85;65.55
30516;BME280;17297;54.022;10.760;2023-08-30T01:50:38;100697.31;;;17.84;65.46
30516;BME280;17297;54.022;10.760;2023-08-30T01:53:05;100699.47;;;17.82;65.55
30516;BME280;17297;54.022;10.760;2023-08-30T01:55:32;100701.81;;;17.78;65.59
30516;BME280;17297;54.022;10.760;2023-08-30T01:57:58;100695.78;;;17.76;65.67
30516;BME280;17297;54.022;10.760;2023-08-30T02:00:23;100705.84;;;17.76;65.69
30516;BME280;17297;54.022;10.760;2023-08-30T02:02:49;100704.16;;;17.75;65.68
30516;BME280;17297;54.022;10.760;2023-08-30T02:05:14;100697.09;;;17.74;65.67
30516;BME280;17297;54.022;10.760;2023-08-30T02:07:47;100693.75;;;17.72;65.83
30516;BME280;17297;54.022;10.760;2023-08-30T02:10:17;100690.22;;;17.71;65.71
30516;BME280;17297;54.022;10.760;2023-08-30T02:12:47;100690.47;;;17.70;65.56
30516;BME280;17297;54.022;10.760;2023-08-30T02:15:15;100700.50;;;17.69;65.67
30516;BME280;17297;54.022;10.760;2023-08-30T02:17:43;100699.94;;;17.67;65.61
30516;BME280;17297;54.022;10.760;2023-08-30T02:20:09;100708.34;;;17.66;65.80
30516;BME280;17297;54.022;10.760;2023-08-30T02:22:35;100703.97;;;17.65;65.84
30516;BME280;17297;54.022;10.760;2023-08-30T02:25:01;100705.28;;;17.62;65.72
30516;BME280;17297;54.022;10.760;2023-08-30T02:27:30;100706.34;;;17.61;65.70
30516;BME280;17297;54.022;10.760;2023-08-30T02:29:56;100707.66;;;17.59;65.79
30516;BME280;17297;54.022;10.760;2023-08-30T02:32:24;100701.63;;;17.57;65.74
30516;BME280;17297;54.022;10.760;2023-08-30T02:34:51;100699.97;;;17.55;65.72
30516;BME280;17297;54.022;10.760;2023-08-30T02:37:19;100696.44;;;17.55;65.82
30516;BME280;17297;54.022;10.760;2023-08-30T02:39:45;100699.38;;;17.53;65.79
30516;BME280;17297;54.022;10.760;2023-08-30T02:42:10;100702.94;;;17.54;65.79
30516;BME280;17297;54.022;10.760;2023-08-30T02:44:36;100701.53;;;17.51;65.96
30516;BME280;17297;54.022;10.760;2023-08-30T02:47:01;100698.00;;;17.51;65.89
30516;BME280;17297;54.022;10.760;2023-08-30T02:49:26;100701.75;;;17.50;65.86
30516;BME280;17297;54.022;10.760;2023-08-30T02:51:52;100697.38;;;17.49;65.82
30516;BME280;17297;54.022;10.760;2023-08-30T02:54:17;100698.69;;;17.46;65.78
30516;BME280;17297;54.022;10.760;2023-08-30T02:56:44;100698.94;;;17.45;65.96
30516;BME280;17297;54.022;10.760;2023-08-30T02:59:10;100691.84;;;17.44;66.10
30516;BME280;17297;54.022;10.760;2023-08-30T03:01:37;100701.28;;;17.41;65.77
30516;BME280;17297;54.022;10.760;2023-08-30T03:04:04;100698.81;;;17.40;65.99
30516;BME280;17297;54.022;10.760;2023-08-30T03:06:30;100698.00;;;17.39;66.00
30516;BME280;17297;54.022;10.760;2023-08-30T03:08:55;100708.88;;;17.39;66.05
30516;BME280;17297;54.022;10.760;2023-08-30T03:11:23;100703.91;;;17.36;65.82
30516;BME280;17297;54.022;10.760;2023-08-30T03:13:53;100701.41;;;17.35;65.92
30516;BME280;17297;54.022;10.760;2023-08-30T03:16:18;100699.78;;;17.34;65.91
30516;BME280;17297;54.022;10.760;2023-08-30T03:18:44;100698.13;;;17.33;65.79
30516;BME280;17297;54.022;10.760;2023-08-30T03:21:10;100704.63;;;17.31;65.87
30516;BME280;17297;54.022;10.760;2023-08-30T03:23:35;100700.25;;;17.30;65.96
30516;BME280;17297;54.022;10.760;2023-08-30T03:26:13;100694.47;;;17.27;66.16
30516;BME280;17297;54.022;10.760;2023-08-30T03:28:40;100699.09;;;17.26;65.97
30516;BME280;17297;54.022;10.760;2023-08-30T03:31:19;100699.31;;;17.25;66.16
30516;BME280;17297;54.022;10.760;2023-08-30T03:33:49;100690.59;;;17.23;65.94
30516;BME280;17297;54.022;10.760;2023-08-30T03:36:16;100691.63;;;17.22;65.90
30516;BME280;17297;54.022;10.760;2023-08-30T03:38:43;100685.63;;;17.20;65.96
30516;BME280;17297;54.022;10.760;2023-08-30T03:41:10;100684.78;;;17.19;65.92
30516;BME280;17297;54.022;10.760;2023-08-30T03:43:35;100683.94;;;17.19;66.02
30516;BME280;17297;54.022;10.760;2023-08-30T03:46:01;100682.31;;;17.18;66.07
30516;BME280;17297;54.022;10.760;2023-08-30T03:48:29;100684.44;;;17.16;66.21
30516;BME280;17297;54.022;10.760;2023-08-30T03:50:55;100677.09;;;17.16;66.18
30516;BME280;17297;54.022;10.760;2023-08-30T03:53:21;100683.59;;;17.15;66.16
30516;BME280;17297;54.022;10.760;2023-08-30T03:55:46;100670.03;;;17.15;65.94
30516;BME280;17297;54.022;10.760;2023-08-30T03:58:11;100663.75;;;17.15;66.14
30516;BME280;17297;54.022;10.760;2023-08-30T04:00:38;100660.22;;;17.14;66.16
30516;BME280;17297;54.022;10.760;2023-08-30T04:03:04;100664.84;;;17.14;66.00
30516;BME280;17297;54.022;10.760;2023-08-30T04:05:33;100656.69;;;17.14;66.21
30516;BME280;17297;54.022;10.760;2023-08-30T04:08:01;100660.44;;;17.13;66.03
30516;BME280;17297;54.022;10.760;2023-08-30T04:10:28;100658.81;;;17.12;66.09
30516;BME280;17297;54.022;10.760;2023-08-30T04:12:53;100654.44;;;17.11;66.00
30516;BME280;17297;54.022;10.760;2023-08-30T04:15:18;100652.75;;;17.09;66.19
30516;BME280;17297;54.022;10.760;2023-08-30T04:17:44;100650.88;;;17.10;66.27
30516;BME280;17297;54.022;10.760;2023-08-30T04:20:10;100640.25;;;17.08;66.26
30516;BME280;17297;54.022;10.760;2023-08-30T04:22:36;100638.63;;;17.07;66.32
30516;BME280;17297;54.022;10.760;2023-08-30T04:25:01;100634.22;;;17.06;66.25
30516;BME280;17297;54.022;10.760;2023-08-30T04:27:27;100632.56;;;17.05;66.10
30516;BME280;17297;54.022;10.760;2023-08-30T04:29:52;100625.25;;;17.06;66.17
30516;BME280;17297;54.022;10.760;2023-08-30T04:32:18;100625.50;;;17.04;66.22
30516;BME280;17297;54.022;10.760;2023-08-30T04:34:46;100617.34;;;17.04;66.22
30516;BME280;17297;54.022;10.760;2023-08-30T04:37:11;100610.84;;;17.05;66.28
30516;BME280;17297;54.022;10.760;2023-08-30T04:39:37;100621.72;;;17.05;66.14
30516;BME280;17297;54.022;10.760;2023-08-30T04:42:02;100610.84;;;17.05;66.45
30516;BME280;17297;54.022;10.760;2023-08-30T04:44:29;100613.06;;;17.08;66.36
30516;BME280;17297;54.022;10.760;2023-08-30T04:46:55;100619.44;;;17.14;66.53
30516;BME280;17297;54.022;10.760;2023-08-30T04:49:21;100613.75;;;17.27;66.37
30516;BME280;17297;54.022;10.760;2023-08-30T04:51:47;100614.88;;;17.43;66.40
30516;BME280;17297;54.022;10.760;2023-08-30T04:54:12;100614.03;;;17.54;66.34
30516;BME280;17297;54.022;10.760;2023-08-30T04:56:39;100618.50;;;17.61;66.26
30516;BME280;17297;54.022;10.760;2023-08-30T04:59:05;100619.59;;;17.76;66.11
30516;BME280;17297;54.022;10.760;2023-08-30T05:01:31;100630.00;;;18.08;66.50
30516;BME280;17297;54.022;10.760;2023-08-30T05:03:58;100625.97;;;18.44;66.13
30516;BME280;17297;54.022;10.760;2023-08-30T05:06:24;100618.84;;;18.94;66.21
30516;BME280;17297;54.022;10.760;2023-08-30T05:08:49;100620.00;;;19.42;65.85
30516;BME280;17297;54.022;10.760;2023-08-30T05:11:14;100621.50;;;19.77;65.14
30516;BME280;17297;54.022;10.760;2023-08-30T05:13:41;100620.63;;;19.98;64.20
30516;BME280;17297;54.022;10.760;2023-08-30T05:16:06;100623.72;;;20.07;63.44
30516;BME280;17297;54.022;10.760;2023-08-30T05:18:32;100630.75;;;20.03;63.34
30516;BME280;17297;54.022;10.760;2023-08-30T05:20:57;100625.81;;;20.00;63.06
30516;BME280;17297;54.022;10.760;2023-08-30T05:23:22;100626.03;;;19.93;62.70
30516;BME280;17297;54.022;10.760;2023-08-30T05:25:48;100627.03;;;19.82;62.67
30516;BME280;17297;54.022;10.760;2023-08-30T05:28:14;100630.41;;;19.67;62.53
30516;BME280;17297;54.022;10.760;2023-08-30T05:30:42;100621.19;;;19.51;62.58
30516;BME280;17297;54.022;10.760;2023-08-30T05:33:15;100628.94;;;19.37;62.87
30516;BME280;17297;54.022;10.760;2023-08-30T05:36:09;100630.41;;;19.23;62.72
30516;BME280;17297;54.022;10.760;2023-08-30T05:39:04;100626.38;;;19.09;63.04
30516;BME280;17297;54.022;10.760;2023-08-30T05:41:34;100625.44;;;18.98;63.11
30516;BME280;17297;54.022;10.760;2023-08-30T05:44:00;100617.44;;;18.91;63.15
30516;BME280;17297;54.022;10.760;2023-08-30T05:46:25;100625.88;;;18.90;63.43
30516;BME280;17297;54.022;10.760;2023-08-30T05:48:51;100623.13;;;18.90;63.59
30516;BME280;17297;54.022;10.760;2023-08-30T05:51:16;100620.19;;;18.91;63.60
30516;BME280;17297;54.022;10.760;2023-08-30T05:53:42;100621.81;;;18.92;63.74
30516;BME280;17297;54.022;10.760;2023-08-30T05:56:07;100616.13;;;18.94;64.06
30516;BME280;17297;54.022;10.760;2023-08-30T05:58:33;100627.25;;;18.92;64.10
30516;BME280;17297;54.022;10.760;2023-08-30T06:00:58;100617.69;;;18.90;63.82
30516;BME280;17297;54.022;10.760;2023-08-30T06:03:25;100619.84;;;18.88;64.08
30516;BME280;17297;54.022;10.760;2023-08-30T06:05:51;100619.28;;;18.86;64.03
30516;BME280;17297;54.022;10.760;2023-08-30T06:08:16;100613.25;;;18.84;64.20
30516;BME280;17297;54.022;10.760;2023-08-30T06:10:43;100607.47;;;18.80;64.03
30516;BME280;17297;54.022;10.760;2023-08-30T06:13:08;100604.16;;;18.78;64.40
30516;BME280;17297;54.022;10.760;2023-08-30T06:15:35;100610.13;;;18.75;64.53
30516;BME280;17297;54.022;10.760;2023-08-30T06:18:01;100616.03;;;18.72;64.35
30516;BME280;17297;54.022;10.760;2023-08-30T06:20:26;100610.84;;;18.70;64.45
30516;BME280;17297;54.022;10.760;2023-08-30T06:22:51;100617.38;;;18.69;64.63
30516;BME280;17297;54.022;10.760;2023-08-30T06:25:17;100612.16;;;18.68;64.54
30516;BME280;17297;54.022;10.760;2023-08-30T06:27:54;100609.72;;;18.66;64.93
30516;BME280;17297;54.022;10.760;2023-08-30T06:30:20;100608.63;;;18.67;64.89
30516;BME280;17297;54.022;10.760;2023-08-30T06:32:46;100602.91;;;18.69;64.99
30516;BME280;17297;54.022;10.760;2023-08-30T06:35:11;100607.31;;;18.70;64.89
30516;BME280;17297;54.022;10.760;2023-08-30T06:37:37;100606.56;;;18.75;65.20
30516;BME280;17297;54.022;10.760;2023-08-30T06:40:02;100609.09;;;18.81;65.33
30516;BME280;17297;54.022;10.760;2023-08-30T06:42:28;100599.44;;;18.90;65.02
30516;BME280;17297;54.022;10.760;2023-08-30T06:44:54;100610.00;;;19.04;65.43
30516;BME280;17297;54.022;10.760;2023-08-30T06:47:19;100604.16;;;19.17;65.48
30516;BME280;17297;54.022;10.760;2023-08-30T06:49:45;100600.53;;;19.33;65.37
30516;BME280;17297;54.022;10.760;2023-08-30T06:52:10;100595.19;;;19.44;65.17
30516;BME280;17297;54.022;10.760;2023-08-30T06:54:36;100597.97;;;19.49;65.04
30516;BME280;17297;54.022;10.760;2023-08-30T06:57:01;100591.00;;;19.58;65.25
30516;BME280;17297;54.022;10.760;2023-08-30T06:59:28;100587.34;;;19.69;64.75
30516;BME280;17297;54.022;10.760;2023-08-30T07:01:53;100589.94;;;19.86;64.95
30516;BME280;17297;54.022;10.760;2023-08-30T07:04:19;100590.16;;;20.12;64.90
30516;BME280;17297;54.022;10.760;2023-08-30T07:06:44;100593.84;;;20.27;64.88
30516;BME280;17297;54.022;10.760;2023-08-30T07:09:10;100584.34;;;20.35;64.70
30516;BME280;17297;54.022;10.760;2023-08-30T07:11:38;100577.41;;;20.55;64.43
30516;BME280;17297;54.022;10.760;2023-08-30T07:14:03;100574.88;;;20.85;64.43
30516;BME280;17297;54.022;10.760;2023-08-30T07:16:29;100572.50;;;21.04;63.90
30516;BME280;17297;54.022;10.760;2023-08-30T07:18:57;100573.34;;;21.15;63.89
30516;BME280;17297;54.022;10.760;2023-08-30T07:21:22;100576.47;;;21.39;63.66
30516;BME280;17297;54.022;10.760;2023-08-30T07:23:48;100576.00;;;21.62;63.15
30516;BME280;17297;54.022;10.760;2023-08-30T07:26:13;100568.91;;;21.72;62.86
30516;BME280;17297;54.022;10.760;2023-08-30T07:28:38;100581.75;;;21.71;62.11
30516;BME280;17297;54.022;10.760;2023-08-30T07:31:05;100570.00;;;21.65;62.21
30516;BME280;17297;54.022;10.760;2023-08-30T07:33:30;100583.09;;;21.58;62.13
30516;BME280;17297;54.022;10.760;2023-08-30T07:35:59;100580.34;;;21.48;62.14
30516;BME280;17297;54.022;10.760;2023-08-30T07:38:24;100581.41;;;21.42;61.99
30516;BME280;17297;54.022;10.760;2023-08-30T07:40:50;100583.56;;;21.35;62.25
30516;BME280;17297;54.022;10.760;2023-08-30T07:43:15;100587.38;;;21.29;62.12
30516;BME280;17297;54.022;10.760;2023-08-30T07:45:40;100582.97;;;21.22;62.25
30516;BME280;17297;54.022;10.760;2023-08-30T07:48:06;100584.31;;;21.20;62.49
30516;BME280;17297;54.022;10.760;2023-08-30T07:50:31;100588.41;;;21.17;62.52
30516;BME280;17297;54.022;10.760;2023-08-30T07:52:56;100587.03;;;21.15;62.58
30516;BME280;17297;54.022;10.760;2023-08-30T07:55:22;100589.22;;;21.13;62.28
30516;BME280;17297;54.022;10.760;2023-08-30T07:57:47;100596.03;;;21.10;62.23
30516;BME280;17297;54.022;10.760;2023-08-30T08:00:13;100597.13;;;21.09;62.49
30516;BME280;17297;54.022;10.760;2023-08-30T08:02:39;100605.88;;;21.06;62.21
30516;BME280;17297;54.022;10.760;2023-08-30T08:05:05;100594.38;;;21.04;62.16
30516;BME280;17297;54.022;10.760;2023-08-30T08:07:31;100600.09;;;21.03;62.14
30516;BME280;17297;54.022;10.760;2023-08-30T08:09:56;100601.47;;;21.00;61.92
30516;BME280;17297;54.022;10.760;2023-08-30T08:12:22;100597.06;;;20.99;62.11
30516;BME280;17297;54.022;10.760;2023-08-30T08:14:47;100591.06;;;20.97;62.06
30516;BME280;17297;54.022;10.760;2023-08-30T08:17:13;100605.28;;;20.99;61.65
30516;BME280;17297;54.022;10.760;2023-08-30T08:19:38;100608.00;;;20.99;61.76
30516;BME280;17297;54.022;10.760;2023-08-30T08:22:08;100603.34;;;20.99;61.97
30516;BME280;17297;54.022;10.760;2023-08-30T08:24:33;100600.94;;;21.03;61.89
30516;BME280;17297;54.022;10.760;2023-08-30T08:26:58;100600.94;;;21.03;61.64
30516;BME280;17297;54.022;10.760;2023-08-30T08:29:26;100606.13;;;21.05;61.27
30516;BME280;17297;54.022;10.760;2023-08-30T08:31:52;100606.41;;;21.03;61.49
30516;BME280;17297;54.022;10.760;2023-08-30T08:34:17;100602.00;;;21.02;61.30
30516;BME280;17297;54.022;10.760;2023-08-30T08:36:42;100604.50;;;21.04;60.96
30516;BME280;17297;54.022;10.760;2023-08-30T08:39:08;100600.66;;;21.05;60.88
30516;BME280;17297;54.022;10.760;2023-08-30T08:41:38;100588.38;;;21.07;60.94
30516;BME280;17297;54.022;10.760;2023-08-30T08:44:05;100592.22;;;21.11;60.87
30516;BME280;17297;54.022;10.760;2023-08-30T08:46:32;100593.88;;;21.17;61.06
30516;BME280;17297;54.022;10.760;2023-08-30T08:48:58;100599.94;;;21.25;60.92
30516;BME280;17297;54.022;10.760;2023-08-30T08:51:26;100605.41;;;21.30;60.86
30516;BME280;17297;54.022;10.760;2023-08-30T08:53:51;100599.41;;;21.33;60.75
30516;BME280;17297;54.022;10.760;2023-08-30T08:56:17;100607.13;;;21.36;60.62
30516;BME280;17297;54.022;10.760;2023-08-30T08:58:44;100606.00;;;21.37;60.19
30516;BME280;17297;54.022;10.760;2023-08-30T09:01:09;100600.28;;;21.38;60.00
30516;BME280;17297;54.022;10.760;2023-08-30T09:03:36;100598.38;;;21.39;59.54
30516;BME280;17297;54.022;10.760;2023-08-30T09:06:02;100599.19;;;21.39;59.53
30516;BME280;17297;54.022;10.760;2023-08-30T09:08:28;100604.66;;;21.39;59.56
30516;BME280;17297;54.022;10.760;2023-08-30T09:10:53;100604.94;;;21.38;59.02
30516;BME280;17297;54.022;10.760;2023-08-30T09:13:19;100591.78;;;21.40;59.36
30516;BME280;17297;54.022;10.760;2023-08-30T09:15:46;100591.00;;;21.44;59.88
30516;BME280;17297;54.022;10.760;2023-08-30T09:18:17;100586.91;;;21.47;59.35
30516;BME280;17297;54.022;10.760;2023-08-30T09:20:43;100584.47;;;21.51;59.07
30516;BME280;17297;54.022;10.760;2023-08-30T09:23:21;100578.69;;;21.52;59.38
30516;BME280;17297;54.022;10.760;2023-08-30T09:25:47;100575.72;;;21.54;59.06
30516;BME280;17297;54.022;10.760;2023-08-30T09:28:12;100573.00;;;21.59;58.58
30516;BME280;17297;54.022;10.760;2023-08-30T09:30:39;100563.97;;;21.63;58.66
30516;BME280;17297;54.022;10.760;2023-08-30T09:33:05;100564.22;;;21.67;58.60
30516;BME280;17297;54.022;10.760;2023-08-30T09:35:31;100568.38;;;21.75;58.83
30516;BME280;17297;54.022;10.760;2023-08-30T09:37:56;100568.34;;;21.80;58.18
30516;BME280;17297;54.022;10.760;2023-08-30T09:40:22;100566.19;;;21.82;58.24
30516;BME280;17297;54.022;10.760;2023-08-30T09:42:48;100560.16;;;21.90;58.37
30516;BME280;17297;54.022;10.760;2023-08-30T09:45:22;100560.72;;;21.97;58.40
30516;BME280;17297;54.022;10.760;2023-08-30T09:47:49;100557.13;;;22.02;57.88
30516;BME280;17297;54.022;10.760;2023-08-30T09:50:18;100561.25;;;22.04;58.21
30516;BME280;17297;54.022;10.760;2023-08-30T09:52:46;100555.22;;;22.07;57.85
30516;BME280;17297;54.022;10.760;2023-08-30T09:55:12;100558.78;;;22.08;57.95
30516;BME280;17297;54.022;10.760;2023-08-30T09:57:38;100547.00;;;22.07;57.58
30516;BME280;17297;54.022;10.760;2023-08-30T10:00:11;100545.63;;;22.05;57.58
30516;BME280;17297;54.022;10.760;2023-08-30T10:02:41;100542.09;;;22.04;57.58
30516;BME280;17297;54.022;10.760;2023-08-30T10:05:08;100545.38;;;22.01;57.47
30516;BME280;17297;54.022;10.760;2023-08-30T10:07:35;100549.47;;;22.04;57.76
30516;BME280;17297;54.022;10.760;2023-08-30T10:10:02;100547.56;;;22.04;57.51
30516;BME280;17297;54.022;10.760;2023-08-30T10:12:31;100544.25;;;22.02;57.38
30516;BME280;17297;54.022;10.760;2023-08-30T10:14:57;100544.25;;;22.02;57.55
30516;BME280;17297;54.022;10.760;2023-08-30T10:17:27;100538.53;;;22.04;57.64
30516;BME280;17297;54.022;10.760;2023-08-30T10:19:53;100533.31;;;22.07;57.25
30516;BME280;17297;54.022;10.760;2023-08-30T10:22:20;100538.25;;;22.10;57.24
30516;BME280;17297;54.022;10.760;2023-08-30T10:24:50;100540.72;;;22.12;57.53
30516;BME280;17297;54.022;10.760;2023-08-30T10:27:17;100543.16;;;22.13;57.33
30516;BME280;17297;54.022;10.760;2023-08-30T10:29:43;100542.06;;;22.14;57.51
30516;BME280;17297;54.022;10.760;2023-08-30T10:32:11;100538.81;;;22.12;57.32
30516;BME280;17297;54.022;10.760;2023-08-30T10:34:36;100545.34;;;22.11;57.61
30516;BME280;17297;54.022;10.760;2023-08-30T10:37:06;100544.00;;;22.09;57.30
30516;BME280;17297;54.022;10.760;2023-08-30T10:39:38;100539.91;;;22.06;56.93
30516;BME280;17297;54.022;10.760;2023-08-30T10:42:12;100539.34;;;22.04;56.97
30516;BME280;17297;54.022;10.760;2023-08-30T10:44:50;100543.19;;;22.03;57.17
30516;BME280;17297;54.022;10.760;2023-08-30T10:47:23;100548.09;;;22.01;57.00
30516;BME280;17297;54.022;10.760;2023-08-30T10:49:53;100544.81;;;21.99;57.16
30516;BME280;17297;54.022;10.760;2023-08-30T10:52:20;100538.81;;;21.97;57.19
30516;BME280;17297;54.022;10.760;2023-08-30T10:54:45;100539.06;;;21.96;57.21
30516;BME280;17297;54.022;10.760;2023-08-30T10:57:15;100539.34;;;21.94;57.01
30516;BME280;17297;54.022;10.760;2023-08-30T11:00:03;100543.16;;;21.93;57.04
30516;BME280;17297;54.022;10.760;2023-08-30T11:02:29;100545.91;;;21.93;57.29
30516;BME280;17297;54.022;10.760;2023-08-30T11:04:56;100536.34;;;21.90;57.57
30516;BME280;17297;54.022;10.760;2023-08-30T11:07:24;100541.81;;;21.90;57.55
30516;BME280;17297;54.022;10.760;2023-08-30T11:09:51;100538.25;;;21.90;57.19
30516;BME280;17297;54.022;10.760;2023-08-30T11:12:18;100538.25;;;21.90;57.41
30516;BME280;17297;54.022;10.760;2023-08-30T11:14:43;100537.16;;;21.91;57.24
30516;BME280;17297;54.022;10.760;2023-08-30T11:17:11;100539.59;;;21.92;56.94
30516;BME280;17297;54.022;10.760;2023-08-30T11:19:37;100531.13;;;21.94;57.04
30516;BME280;17297;54.022;10.760;2023-08-30T11:22:02;100530.84;;;21.96;57.09
30516;BME280;17297;54.022;10.760;2023-08-30T11:24:28;100532.22;;;21.98;57.07
30516;BME280;17297;54.022;10.760;2023-08-30T11:26:54;100533.84;;;21.99;57.00
30516;BME280;17297;54.022;10.760;2023-08-30T11:29:20;100529.22;;;22.00;57.06
30516;BME280;17297;54.022;10.760;2023-08-30T11:31:45;100521.00;;;22.00;56.85
30516;BME280;17297;54.022;10.760;2023-08-30T11:34:12;100515.53;;;22.00;56.89
30516;BME280;17297;54.022;10.760;2023-08-30T11:36:38;100520.16;;;21.99;56.77
30516;BME280;17297;54.022;10.760;2023-08-30T11:39:04;100524.81;;;21.99;57.08
30516;BME280;17297;54.022;10.760;2023-08-30T11:41:31;100517.44;;;21.99;56.80
30516;BME280;17297;54.022;10.760;2023-08-30T11:43:58;100525.38;;;22.01;56.90
30516;BME280;17297;54.022;10.760;2023-08-30T11:46:23;100520.72;;;22.01;57.02
30516;BME280;17297;54.022;10.760;2023-08-30T11:48:50;100522.91;;;22.04;57.12
30516;BME280;17297;54.022;10.760;2023-08-30T11:51:17;100528.66;;;22.08;57.35
30516;BME280;17297;54.022;10.760;2023-08-30T11:53:43;100530.56;;;22.07;57.34
30516;BME280;17297;54.022;10.760;2023-08-30T11:56:10;100524.00;;;22.08;57.35
30516;BME280;17297;54.022;10.760;2023-08-30T11:58:36;100525.91;;;22.08;57.20
30516;BME280;17297;54.022;10.760;2023-08-30T12:01:02;100514.13;;;22.07;57.43
30516;BME280;17297;54.022;10.760;2023-08-30T12:03:29;100514.97;;;22.08;57.07
30516;BME280;17297;54.022;10.760;2023-08-30T12:05:55;100514.97;;;22.08;57.08
30516;BME280;17297;54.022;10.760;2023-08-30T12:08:31;100515.78;;;22.08;57.44
30516;BME280;17297;54.022;10.760;2023-08-30T12:10:57;100511.97;;;22.09;56.99
30516;BME280;17297;54.022;10.760;2023-08-30T12:13:30;100511.16;;;22.09;57.31
30516;BME280;17297;54.022;10.760;2023-08-30T12:15:57;100511.41;;;22.07;57.19
30516;BME280;17297;54.022;10.760;2023-08-30T12:18:24;100516.06;;;22.07;56.81
30516;BME280;17297;54.022;10.760;2023-08-30T12:20:53;100511.69;;;22.06;57.24
30516;BME280;17297;54.022;10.760;2023-08-30T12:23:20;100513.88;;;22.04;57.08
30516;BME280;17297;54.022;10.760;2023-08-30T12:28:32;100514.97;;;22.03;57.12
30516;BME280;17297;54.022;10.760;2023-08-30T12:30:59;100510.59;;;22.02;56.80
30516;BME280;17297;54.022;10.760;2023-08-30T12:33:25;100516.06;;;22.02;56.92
30516;BME280;17297;54.022;10.760;2023-08-30T12:35:54;100510.31;;;22.03;56.91
30516;BME280;17297;54.022;10.760;2023-08-30T12:38:20;100514.13;;;22.02;57.28
30516;BME280;17297;54.022;10.760;2023-08-30T12:40:49;100516.06;;;22.02;57.25
30516;BME280;17297;54.022;10.760;2023-08-30T12:43:21;100515.25;;;22.01;56.98
30516;BME280;17297;54.022;10.760;2023-08-30T12:45:47;100513.31;;;22.02;57.17